Volgo-balt 229 — UHZF — position and weather

sailwx.info

Track history (hours):
 
Tides and Currents Weather Stations Pressure Air Temp Water Temp Dewpoint Dewpoint Depression Visibility Wind Speed Wind Dir Waves Ship Positions

Volgo-balt 229

Last reported at 2014-Dec-19 19:31 UTC. Time now 2014-Dec-19 20:16 UTC.
Position N 54°31' E 018°37'.

Length 113 m; draft 3.8 m.

Type: Ship. MMSI: 273336300.

Date/timePositionNaut miles runAvg speedWind from/ knotsBaromVisibWave heightAir tempDewpointWater temp
2014-Dec-19 19:31N 54°31' E 018°37'0 0.0
2014-Dec-19 18:31N 54°31' E 018°37'0 0.0
2014-Dec-19 17:31N 54°31' E 018°37'0 0.0
2014-Dec-19 16:31N 54°32' E 018°37'2 1.9
2014-Dec-19 15:34N 54°32' E 018°40'7 6.5
2014-Dec-19 14:33N 54°34' E 018°51'7 7.2
2014-Dec-19 13:33N 54°41' E 018°56'6 6.3
2014-Dec-19 12:33N 54°47' E 018°58'7 6.7
2014-Dec-19 11:33N 54°53' E 018°54'6 5.8
2014-Dec-19 10:33N 54°59' E 018°51'  
2014-Dec-13 22:32N 54°43' E 014°60'93 3.7
2014-Dec-12 21:31N 54°32' E 012°20'8 8.9
2014-Dec-12 20:34N 54°26' E 012°11'9 8.6
2014-Dec-12 19:32N 54°24' E 011°57'46 7.6
2014-Dec-12 13:33N 54°33' E 010°40'8 8.2
2014-Dec-12 12:32N 54°31' E 010°26'8 7.8
2014-Dec-12 11:33N 54°27' E 010°15'6 6.1
2014-Dec-12 10:33N 54°22' E 010°08'7 6.0
2014-Dec-12 09:20N 54°20' E 009°56'6 7.6
2014-Dec-12 08:33N 54°21' E 009°46'3 1.6
2014-Dec-12 06:33N 54°19' E 009°42'0 0.0
2014-Dec-11 23:15N 54°19' E 009°42'0 0.0
2014-Dec-11 21:33N 54°19' E 009°42'0 0.0
2014-Dec-11 16:27N 54°19' E 009°43'0 0.0
2014-Dec-11 14:33N 54°19' E 009°43'0 0.0
2014-Dec-11 10:27N 54°19' E 009°43'0 0.0
2014-Dec-11 09:27N 54°19' E 009°43'0 0.0
2014-Dec-10 22:21N 54°19' E 009°43'0 0.0
2014-Dec-10 16:21N 54°19' E 009°42'0 0.0
2014-Dec-10 15:33N 54°19' E 009°42'0 0.0
2014-Dec-10 11:27N 54°19' E 009°42'0 0.0
2014-Dec-10 10:21N 54°19' E 009°42'0 0.0
2014-Dec-10 09:27N 54°19' E 009°42'0 0.0
2014-Dec-10 08:33N 54°19' E 009°42'0 0.0
2014-Dec-10 07:33N 54°19' E 009°42'0 0.0
2014-Dec-10 06:33N 54°19' E 009°42'0 0.0
2014-Dec-10 05:33N 54°19' E 009°42'0 0.0
2014-Dec-10 04:33N 54°19' E 009°42'0 0.0
2014-Dec-10 03:33N 54°19' E 009°42'0 0.0
2014-Dec-10 02:33N 54°19' E 009°42'0 0.0
2014-Dec-10 01:33N 54°19' E 009°42'0 0.0
2014-Dec-10 00:33N 54°19' E 009°42'  
Track history (hours):
 
Tides and Currents Weather Stations Pressure Air Temp Water Temp Dewpoint Dewpoint Depression Visibility Wind Speed Wind Dir Waves Ship Positions

Volgo-balt 229

Last reported at 2014-Dec-19 19:31 UTC. Time now 2014-Dec-19 20:16 UTC.
Position N 54°31' E 018°37'.

Length 113 m; draft 3.8 m.

Type: Ship. MMSI: 273336300.

Date/timePositionNaut miles runAvg speedWind from/ knotsBaromVisibWave heightAir tempDewpointWater temp
2014-Dec-19 19:31N 54°31' E 018°37'0 0.0
2014-Dec-19 18:31N 54°31' E 018°37'0 0.0
2014-Dec-19 17:31N 54°31' E 018°37'0 0.0
2014-Dec-19 16:31N 54°32' E 018°37'2 1.9
2014-Dec-19 15:34N 54°32' E 018°40'7 6.5
2014-Dec-19 14:33N 54°34' E 018°51'7 7.2
2014-Dec-19 13:33N 54°41' E 018°56'6 6.3
2014-Dec-19 12:33N 54°47' E 018°58'7 6.7
2014-Dec-19 11:33N 54°53' E 018°54'6 5.8
2014-Dec-19 10:33N 54°59' E 018°51'  
2014-Dec-13 22:32N 54°43' E 014°60'93 3.7
2014-Dec-12 21:31N 54°32' E 012°20'8 8.9
2014-Dec-12 20:34N 54°26' E 012°11'9 8.6
2014-Dec-12 19:32N 54°24' E 011°57'46 7.6
2014-Dec-12 13:33N 54°33' E 010°40'8 8.2
2014-Dec-12 12:32N 54°31' E 010°26'8 7.8
2014-Dec-12 11:33N 54°27' E 010°15'6 6.1
2014-Dec-12 10:33N 54°22' E 010°08'7 6.0
2014-Dec-12 09:20N 54°20' E 009°56'6 7.6
2014-Dec-12 08:33N 54°21' E 009°46'3 1.6
2014-Dec-12 06:33N 54°19' E 009°42'0 0.0
2014-Dec-11 23:15N 54°19' E 009°42'0 0.0
2014-Dec-11 21:33N 54°19' E 009°42'0 0.0
2014-Dec-11 16:27N 54°19' E 009°43'0 0.0
2014-Dec-11 14:33N 54°19' E 009°43'0 0.0
2014-Dec-11 10:27N 54°19' E 009°43'0 0.0
2014-Dec-11 09:27N 54°19' E 009°43'0 0.0
2014-Dec-10 22:21N 54°19' E 009°43'0 0.0
2014-Dec-10 16:21N 54°19' E 009°42'0 0.0
2014-Dec-10 15:33N 54°19' E 009°42'0 0.0
2014-Dec-10 11:27N 54°19' E 009°42'0 0.0
2014-Dec-10 10:21N 54°19' E 009°42'0 0.0
2014-Dec-10 09:27N 54°19' E 009°42'0 0.0
2014-Dec-10 08:33N 54°19' E 009°42'0 0.0
2014-Dec-10 07:33N 54°19' E 009°42'0 0.0
2014-Dec-10 06:33N 54°19' E 009°42'0 0.0
2014-Dec-10 05:33N 54°19' E 009°42'0 0.0
2014-Dec-10 04:33N 54°19' E 009°42'0 0.0
2014-Dec-10 03:33N 54°19' E 009°42'0 0.0
2014-Dec-10 02:33N 54°19' E 009°42'0 0.0
2014-Dec-10 01:33N 54°19' E 009°42'0 0.0
2014-Dec-10 00:33N 54°19' E 009°42'  

Dump ship's entire track history